sensor_id;sensor_type;location;lat;lon;timestamp;P1;durP1;ratioP1;P2;durP2;ratioP2
65753;SDS011;52488;47.502;18.940;2023-03-23T00:00:30;6.45;;;3.17;;
65753;SDS011;52488;47.502;18.940;2023-03-23T00:01:33;5.47;;;3.20;;
65753;SDS011;52488;47.502;18.940;2023-03-23T00:02:38;5.00;;;2.92;;
65753;SDS011;52488;47.502;18.940;2023-03-23T00:03:40;6.15;;;3.20;;
65753;SDS011;52488;47.502;18.940;2023-03-23T00:04:43;8.43;;;3.28;;
65753;SDS011;52488;47.502;18.940;2023-03-23T00:05:45;6.37;;;3.00;;
65753;SDS011;52488;47.502;18.940;2023-03-23T00:06:51;6.53;;;3.45;;
65753;SDS011;52488;47.502;18.940;2023-03-23T00:07:53;5.93;;;2.80;;
65753;SDS011;52488;47.502;18.940;2023-03-23T00:08:56;5.57;;;2.90;;
65753;SDS011;52488;47.502;18.940;2023-03-23T00:10:00;5.70;;;3.35;;
65753;SDS011;52488;47.502;18.940;2023-03-23T00:11:06;8.95;;;3.28;;
65753;SDS011;52488;47.502;18.940;2023-03-23T00:12:08;5.90;;;3.03;;
65753;SDS011;52488;47.502;18.940;2023-03-23T00:13:10;7.68;;;3.42;;
65753;SDS011;52488;47.502;18.940;2023-03-23T00:14:12;6.53;;;3.50;;
65753;SDS011;52488;47.502;18.940;2023-03-23T00:15:14;6.90;;;3.62;;
65753;SDS011;52488;47.502;18.940;2023-03-23T00:16:18;8.30;;;3.70;;
65753;SDS011;52488;47.502;18.940;2023-03-23T00:17:31;5.80;;;3.28;;
65753;SDS011;52488;47.502;18.940;2023-03-23T00:18:36;8.52;;;3.70;;
65753;SDS011;52488;47.502;18.940;2023-03-23T00:19:38;7.10;;;3.35;;
65753;SDS011;52488;47.502;18.940;2023-03-23T00:20:47;7.95;;;3.35;;
65753;SDS011;52488;47.502;18.940;2023-03-23T00:21:51;9.50;;;4.00;;
65753;SDS011;52488;47.502;18.940;2023-03-23T00:22:55;6.53;;;3.40;;
65753;SDS011;52488;47.502;18.940;2023-03-23T00:24:02;11.45;;;3.80;;
65753;SDS011;52488;47.502;18.940;2023-03-23T00:25:09;7.65;;;3.37;;
65753;SDS011;52488;47.502;18.940;2023-03-23T00:26:11;9.15;;;4.30;;
65753;SDS011;52488;47.502;18.940;2023-03-23T00:27:13;7.43;;;4.10;;
65753;SDS011;52488;47.502;18.940;2023-03-23T00:28:16;7.85;;;3.70;;
65753;SDS011;52488;47.502;18.940;2023-03-23T00:29:21;10.13;;;3.95;;
65753;SDS011;52488;47.502;18.940;2023-03-23T00:30:24;8.80;;;3.70;;
65753;SDS011;52488;47.502;18.940;2023-03-23T00:31:25;7.82;;;4.10;;
65753;SDS011;52488;47.502;18.940;2023-03-23T00:32:32;8.65;;;3.87;;
65753;SDS011;52488;47.502;18.940;2023-03-23T00:33:34;8.15;;;3.83;;
65753;SDS011;52488;47.502;18.940;2023-03-23T00:34:42;7.12;;;3.65;;
65753;SDS011;52488;47.502;18.940;2023-03-23T00:35:47;7.50;;;3.55;;
65753;SDS011;52488;47.502;18.940;2023-03-23T00:36:51;9.55;;;4.18;;
65753;SDS011;52488;47.502;18.940;2023-03-23T00:37:57;7.68;;;3.50;;
65753;SDS011;52488;47.502;18.940;2023-03-23T00:38:59;7.60;;;3.75;;
65753;SDS011;52488;47.502;18.940;2023-03-23T00:40:05;8.45;;;3.60;;
65753;SDS011;52488;47.502;18.940;2023-03-23T00:41:11;7.30;;;3.60;;
65753;SDS011;52488;47.502;18.940;2023-03-23T00:42:14;7.70;;;3.30;;
65753;SDS011;52488;47.502;18.940;2023-03-23T00:43:18;8.57;;;3.28;;
65753;SDS011;52488;47.502;18.940;2023-03-23T00:44:20;11.27;;;3.70;;
65753;SDS011;52488;47.502;18.940;2023-03-23T00:45:24;8.85;;;3.00;;
65753;SDS011;52488;47.502;18.940;2023-03-23T00:46:26;8.65;;;3.72;;
65753;SDS011;52488;47.502;18.940;2023-03-23T00:47:29;7.72;;;3.60;;
65753;SDS011;52488;47.502;18.940;2023-03-23T00:48:33;7.80;;;3.40;;
65753;SDS011;52488;47.502;18.940;2023-03-23T00:49:37;7.93;;;3.80;;
65753;SDS011;52488;47.502;18.940;2023-03-23T00:50:40;7.62;;;3.72;;
65753;SDS011;52488;47.502;18.940;2023-03-23T00:51:42;8.18;;;3.60;;
65753;SDS011;52488;47.502;18.940;2023-03-23T00:52:44;7.18;;;3.90;;
65753;SDS011;52488;47.502;18.940;2023-03-23T00:53:46;6.60;;;3.55;;
65753;SDS011;52488;47.502;18.940;2023-03-23T00:54:48;6.50;;;3.60;;
65753;SDS011;52488;47.502;18.940;2023-03-23T00:55:50;8.65;;;3.55;;
65753;SDS011;52488;47.502;18.940;2023-03-23T00:56:51;11.60;;;4.43;;
65753;SDS011;52488;47.502;18.940;2023-03-23T00:57:54;8.82;;;3.90;;
65753;SDS011;52488;47.502;18.940;2023-03-23T00:58:56;10.98;;;4.62;;
65753;SDS011;52488;47.502;18.940;2023-03-23T00:59:57;13.40;;;4.55;;
65753;SDS011;52488;47.502;18.940;2023-03-23T01:00:59;10.80;;;4.80;;
65753;SDS011;52488;47.502;18.940;2023-03-23T01:02:01;12.65;;;4.90;;
65753;SDS011;52488;47.502;18.940;2023-03-23T01:03:04;12.18;;;5.18;;
65753;SDS011;52488;47.502;18.940;2023-03-23T01:04:06;11.57;;;5.78;;
65753;SDS011;52488;47.502;18.940;2023-03-23T01:05:08;14.32;;;5.53;;
65753;SDS011;52488;47.502;18.940;2023-03-23T01:06:11;14.65;;;6.12;;
65753;SDS011;52488;47.502;18.940;2023-03-23T01:07:15;12.57;;;6.00;;
65753;SDS011;52488;47.502;18.940;2023-03-23T01:08:19;14.65;;;6.50;;
65753;SDS011;52488;47.502;18.940;2023-03-23T01:09:22;12.35;;;6.68;;
65753;SDS011;52488;47.502;18.940;2023-03-23T01:10:24;12.30;;;5.97;;
65753;SDS011;52488;47.502;18.940;2023-03-23T01:11:27;13.48;;;6.45;;
65753;SDS011;52488;47.502;18.940;2023-03-23T01:12:29;12.50;;;5.95;;
65753;SDS011;52488;47.502;18.940;2023-03-23T01:13:31;16.12;;;6.37;;
65753;SDS011;52488;47.502;18.940;2023-03-23T01:14:33;10.05;;;5.50;;
65753;SDS011;52488;47.502;18.940;2023-03-23T01:15:35;12.43;;;5.43;;
65753;SDS011;52488;47.502;18.940;2023-03-23T01:16:37;12.75;;;5.72;;
65753;SDS011;52488;47.502;18.940;2023-03-23T01:17:39;14.85;;;5.93;;
65753;SDS011;52488;47.502;18.940;2023-03-23T01:18:41;10.35;;;5.43;;
65753;SDS011;52488;47.502;18.940;2023-03-23T01:19:43;12.63;;;5.50;;
65753;SDS011;52488;47.502;18.940;2023-03-23T01:20:45;12.35;;;5.72;;
65753;SDS011;52488;47.502;18.940;2023-03-23T01:21:47;11.50;;;5.00;;
65753;SDS011;52488;47.502;18.940;2023-03-23T01:22:49;12.52;;;5.47;;
65753;SDS011;52488;47.502;18.940;2023-03-23T01:23:51;11.00;;;5.30;;
65753;SDS011;52488;47.502;18.940;2023-03-23T01:24:53;12.85;;;5.15;;
65753;SDS011;52488;47.502;18.940;2023-03-23T01:25:54;8.63;;;4.40;;
65753;SDS011;52488;47.502;18.940;2023-03-23T01:26:59;12.80;;;4.87;;
65753;SDS011;52488;47.502;18.940;2023-03-23T01:28:07;9.88;;;4.47;;
65753;SDS011;52488;47.502;18.940;2023-03-23T01:29:12;9.23;;;4.32;;
65753;SDS011;52488;47.502;18.940;2023-03-23T01:30:14;8.20;;;4.32;;
65753;SDS011;52488;47.502;18.940;2023-03-23T01:31:17;13.35;;;4.30;;
65753;SDS011;52488;47.502;18.940;2023-03-23T01:32:21;5.18;;;3.28;;
65753;SDS011;52488;47.502;18.940;2023-03-23T01:33:22;7.47;;;3.47;;
65753;SDS011;52488;47.502;18.940;2023-03-23T01:34:24;8.95;;;3.50;;
65753;SDS011;52488;47.502;18.940;2023-03-23T01:35:26;6.97;;;3.40;;
65753;SDS011;52488;47.502;18.940;2023-03-23T01:36:28;6.22;;;3.47;;
65753;SDS011;52488;47.502;18.940;2023-03-23T01:37:33;5.18;;;2.83;;
65753;SDS011;52488;47.502;18.940;2023-03-23T01:38:37;7.65;;;3.37;;
65753;SDS011;52488;47.502;18.940;2023-03-23T01:39:39;7.78;;;2.90;;
65753;SDS011;52488;47.502;18.940;2023-03-23T01:40:41;5.25;;;2.60;;
65753;SDS011;52488;47.502;18.940;2023-03-23T01:41:44;5.75;;;2.80;;
65753;SDS011;52488;47.502;18.940;2023-03-23T01:42:46;8.00;;;2.87;;
65753;SDS011;52488;47.502;18.940;2023-03-23T01:45:30;5.72;;;2.85;;
65753;SDS011;52488;47.502;18.940;2023-03-23T01:46:36;4.87;;;2.70;;
65753;SDS011;52488;47.502;18.940;2023-03-23T01:47:38;3.08;;;2.65;;
65753;SDS011;52488;47.502;18.940;2023-03-23T01:48:40;3.17;;;2.33;;
65753;SDS011;52488;47.502;18.940;2023-03-23T01:49:42;3.37;;;2.72;;
65753;SDS011;52488;47.502;18.940;2023-03-23T01:50:55;3.42;;;2.60;;
65753;SDS011;52488;47.502;18.940;2023-03-23T01:52:14;5.68;;;2.85;;
65753;SDS011;52488;47.502;18.940;2023-03-23T01:53:29;4.32;;;2.42;;
65753;SDS011;52488;47.502;18.940;2023-03-23T01:54:44;6.12;;;2.65;;
65753;SDS011;52488;47.502;18.940;2023-03-23T01:55:49;4.53;;;2.65;;
65753;SDS011;52488;47.502;18.940;2023-03-23T01:57:02;3.72;;;2.50;;
65753;SDS011;52488;47.502;18.940;2023-03-23T01:58:09;5.97;;;2.35;;
65753;SDS011;52488;47.502;18.940;2023-03-23T01:59:13;4.50;;;2.95;;
65753;SDS011;52488;47.502;18.940;2023-03-23T02:00:16;5.37;;;2.60;;
65753;SDS011;52488;47.502;18.940;2023-03-23T02:01:19;4.95;;;2.70;;
65753;SDS011;52488;47.502;18.940;2023-03-23T02:02:24;5.68;;;2.95;;
65753;SDS011;52488;47.502;18.940;2023-03-23T02:03:27;5.87;;;2.30;;
65753;SDS011;52488;47.502;18.940;2023-03-23T02:04:30;4.78;;;2.75;;
65753;SDS011;52488;47.502;18.940;2023-03-23T02:05:38;3.75;;;2.60;;
65753;SDS011;52488;47.502;18.940;2023-03-23T02:06:42;4.15;;;2.65;;
65753;SDS011;52488;47.502;18.940;2023-03-23T02:07:46;4.93;;;2.30;;
65753;SDS011;52488;47.502;18.940;2023-03-23T02:08:50;3.33;;;2.42;;
65753;SDS011;52488;47.502;18.940;2023-03-23T02:09:53;4.72;;;2.58;;
65753;SDS011;52488;47.502;18.940;2023-03-23T02:10:55;3.85;;;2.60;;
65753;SDS011;52488;47.502;18.940;2023-03-23T02:11:57;6.62;;;2.58;;
65753;SDS011;52488;47.502;18.940;2023-03-23T02:13:00;7.12;;;2.53;;
65753;SDS011;52488;47.502;18.940;2023-03-23T02:14:03;9.20;;;2.72;;
65753;SDS011;52488;47.502;18.940;2023-03-23T02:15:05;3.92;;;2.72;;
65753;SDS011;52488;47.502;18.940;2023-03-23T02:16:13;4.30;;;2.55;;
65753;SDS011;52488;47.502;18.940;2023-03-23T02:17:49;4.55;;;2.70;;
65753;SDS011;52488;47.502;18.940;2023-03-23T02:27:05;3.22;;;2.42;;
65753;SDS011;52488;47.502;18.940;2023-03-23T02:30:13;4.32;;;2.53;;
65753;SDS011;52488;47.502;18.940;2023-03-23T02:34:00;4.80;;;2.72;;
65753;SDS011;52488;47.502;18.940;2023-03-23T02:34:55;3.33;;;2.45;;
65753;SDS011;52488;47.502;18.940;2023-03-23T02:36:05;3.92;;;2.42;;
65753;SDS011;52488;47.502;18.940;2023-03-23T02:37:36;3.90;;;2.83;;
65753;SDS011;52488;47.502;18.940;2023-03-23T02:38:44;3.70;;;2.47;;
65753;SDS011;52488;47.502;18.940;2023-03-23T02:40:04;5.25;;;2.50;;
65753;SDS011;52488;47.502;18.940;2023-03-23T02:41:14;4.93;;;2.83;;
65753;SDS011;52488;47.502;18.940;2023-03-23T02:42:18;2.65;;;2.30;;
65753;SDS011;52488;47.502;18.940;2023-03-23T02:43:27;5.90;;;2.90;;
65753;SDS011;52488;47.502;18.940;2023-03-23T02:44:34;3.92;;;2.55;;
65753;SDS011;52488;47.502;18.940;2023-03-23T02:45:39;3.25;;;2.60;;
65753;SDS011;52488;47.502;18.940;2023-03-23T02:46:44;3.70;;;2.40;;
65753;SDS011;52488;47.502;18.940;2023-03-23T02:47:46;5.80;;;3.20;;
65753;SDS011;52488;47.502;18.940;2023-03-23T02:48:50;4.45;;;2.65;;
65753;SDS011;52488;47.502;18.940;2023-03-23T02:49:58;3.25;;;2.50;;
65753;SDS011;52488;47.502;18.940;2023-03-23T02:51:01;6.12;;;2.78;;
65753;SDS011;52488;47.502;18.940;2023-03-23T02:52:06;3.47;;;2.78;;
65753;SDS011;52488;47.502;18.940;2023-03-23T02:53:13;6.75;;;3.25;;
65753;SDS011;52488;47.502;18.940;2023-03-23T02:54:19;5.90;;;3.28;;
65753;SDS011;52488;47.502;18.940;2023-03-23T02:55:23;4.85;;;2.47;;
65753;SDS011;52488;47.502;18.940;2023-03-23T02:56:29;4.72;;;2.90;;
65753;SDS011;52488;47.502;18.940;2023-03-23T02:57:34;4.25;;;3.00;;
65753;SDS011;52488;47.502;18.940;2023-03-23T02:58:38;4.75;;;2.83;;
65753;SDS011;52488;47.502;18.940;2023-03-23T02:59:41;3.95;;;3.10;;
65753;SDS011;52488;47.502;18.940;2023-03-23T03:00:43;3.67;;;2.60;;
65753;SDS011;52488;47.502;18.940;2023-03-23T03:01:47;5.03;;;2.92;;
65753;SDS011;52488;47.502;18.940;2023-03-23T03:02:53;4.03;;;2.70;;
65753;SDS011;52488;47.502;18.940;2023-03-23T03:03:57;6.60;;;2.87;;
65753;SDS011;52488;47.502;18.940;2023-03-23T03:09:30;3.92;;;2.80;;
65753;SDS011;52488;47.502;18.940;2023-03-23T03:10:43;6.10;;;2.80;;
65753;SDS011;52488;47.502;18.940;2023-03-23T03:11:54;3.87;;;2.83;;
65753;SDS011;52488;47.502;18.940;2023-03-23T03:13:09;5.00;;;2.83;;
65753;SDS011;52488;47.502;18.940;2023-03-23T03:14:22;4.30;;;2.95;;
65753;SDS011;52488;47.502;18.940;2023-03-23T03:15:36;4.65;;;2.60;;
65753;SDS011;52488;47.502;18.940;2023-03-23T03:16:48;6.78;;;2.65;;
65753;SDS011;52488;47.502;18.940;2023-03-23T03:19:26;4.05;;;2.58;;
65753;SDS011;52488;47.502;18.940;2023-03-23T03:20:43;3.70;;;2.33;;
65753;SDS011;52488;47.502;18.940;2023-03-23T03:21:50;7.10;;;3.07;;
65753;SDS011;52488;47.502;18.940;2023-03-23T03:22:55;4.15;;;2.75;;
65753;SDS011;52488;47.502;18.940;2023-03-23T03:23:59;4.00;;;2.90;;
65753;SDS011;52488;47.502;18.940;2023-03-23T03:25:04;4.05;;;2.70;;
65753;SDS011;52488;47.502;18.940;2023-03-23T03:26:07;4.78;;;3.20;;
65753;SDS011;52488;47.502;18.940;2023-03-23T03:27:14;3.87;;;2.50;;
65753;SDS011;52488;47.502;18.940;2023-03-23T03:28:19;3.83;;;3.00;;
65753;SDS011;52488;47.502;18.940;2023-03-23T03:29:23;4.07;;;2.42;;
65753;SDS011;52488;47.502;18.940;2023-03-23T03:30:31;4.40;;;2.70;;
65753;SDS011;52488;47.502;18.940;2023-03-23T03:31:38;4.65;;;2.62;;
65753;SDS011;52488;47.502;18.940;2023-03-23T03:32:47;4.62;;;2.75;;
65753;SDS011;52488;47.502;18.940;2023-03-23T03:33:54;7.90;;;3.03;;
65753;SDS011;52488;47.502;18.940;2023-03-23T03:35:00;3.55;;;2.58;;
65753;SDS011;52488;47.502;18.940;2023-03-23T03:36:04;4.18;;;2.72;;
65753;SDS011;52488;47.502;18.940;2023-03-23T03:37:10;4.53;;;2.87;;
65753;SDS011;52488;47.502;18.940;2023-03-23T03:38:13;4.47;;;2.87;;
65753;SDS011;52488;47.502;18.940;2023-03-23T03:39:14;5.40;;;2.45;;
65753;SDS011;52488;47.502;18.940;2023-03-23T03:40:20;4.53;;;2.33;;
65753;SDS011;52488;47.502;18.940;2023-03-23T03:41:23;5.93;;;2.40;;
65753;SDS011;52488;47.502;18.940;2023-03-23T03:42:25;3.55;;;2.47;;
65753;SDS011;52488;47.502;18.940;2023-03-23T03:43:27;3.65;;;2.33;;
65753;SDS011;52488;47.502;18.940;2023-03-23T03:44:28;4.35;;;2.35;;
65753;SDS011;52488;47.502;18.940;2023-03-23T03:45:30;2.60;;;2.22;;
65753;SDS011;52488;47.502;18.940;2023-03-23T03:46:32;3.53;;;2.60;;
65753;SDS011;52488;47.502;18.940;2023-03-23T03:47:36;3.10;;;2.33;;
65753;SDS011;52488;47.502;18.940;2023-03-23T03:48:37;3.10;;;2.25;;
65753;SDS011;52488;47.502;18.940;2023-03-23T03:49:39;3.50;;;2.40;;
65753;SDS011;52488;47.502;18.940;2023-03-23T03:50:42;3.35;;;2.58;;
65753;SDS011;52488;47.502;18.940;2023-03-23T03:51:44;5.05;;;2.75;;
65753;SDS011;52488;47.502;18.940;2023-03-23T03:52:46;5.45;;;2.70;;
65753;SDS011;52488;47.502;18.940;2023-03-23T03:53:48;4.37;;;2.60;;
65753;SDS011;52488;47.502;18.940;2023-03-23T03:54:51;4.35;;;2.70;;
65753;SDS011;52488;47.502;18.940;2023-03-23T03:55:53;4.15;;;3.08;;
65753;SDS011;52488;47.502;18.940;2023-03-23T03:56:58;6.12;;;2.87;;
65753;SDS011;52488;47.502;18.940;2023-03-23T03:58:01;3.90;;;2.70;;
65753;SDS011;52488;47.502;18.940;2023-03-23T03:59:06;4.45;;;2.40;;
65753;SDS011;52488;47.502;18.940;2023-03-23T04:00:09;5.55;;;2.67;;
65753;SDS011;52488;47.502;18.940;2023-03-23T04:01:22;4.20;;;2.47;;
65753;SDS011;52488;47.502;18.940;2023-03-23T04:02:24;4.10;;;2.47;;
65753;SDS011;52488;47.502;18.940;2023-03-23T04:03:26;4.18;;;2.72;;
65753;SDS011;52488;47.502;18.940;2023-03-23T04:04:28;5.65;;;2.55;;
65753;SDS011;52488;47.502;18.940;2023-03-23T04:05:30;4.10;;;2.50;;
65753;SDS011;52488;47.502;18.940;2023-03-23T04:06:33;5.45;;;2.75;;
65753;SDS011;52488;47.502;18.940;2023-03-23T04:07:38;5.40;;;2.70;;
65753;SDS011;52488;47.502;18.940;2023-03-23T04:08:42;4.90;;;2.78;;
65753;SDS011;52488;47.502;18.940;2023-03-23T04:09:46;3.53;;;2.70;;
65753;SDS011;52488;47.502;18.940;2023-03-23T04:10:49;3.72;;;2.70;;
65753;SDS011;52488;47.502;18.940;2023-03-23T04:11:51;3.97;;;2.60;;
65753;SDS011;52488;47.502;18.940;2023-03-23T04:12:53;3.50;;;2.40;;
65753;SDS011;52488;47.502;18.940;2023-03-23T04:13:54;3.83;;;2.58;;
65753;SDS011;52488;47.502;18.940;2023-03-23T04:14:56;3.85;;;2.72;;
65753;SDS011;52488;47.502;18.940;2023-03-23T04:15:58;3.60;;;2.80;;
65753;SDS011;52488;47.502;18.940;2023-03-23T04:17:01;3.53;;;2.35;;
65753;SDS011;52488;47.502;18.940;2023-03-23T04:18:03;3.37;;;2.67;;
65753;SDS011;52488;47.502;18.940;2023-03-23T04:19:06;5.18;;;3.15;;
65753;SDS011;52488;47.502;18.940;2023-03-23T04:20:08;4.55;;;2.87;;
65753;SDS011;52488;47.502;18.940;2023-03-23T04:21:19;4.47;;;2.70;;
65753;SDS011;52488;47.502;18.940;2023-03-23T04:22:21;5.18;;;2.78;;
65753;SDS011;52488;47.502;18.940;2023-03-23T04:23:34;3.60;;;2.40;;
65753;SDS011;52488;47.502;18.940;2023-03-23T04:24:36;3.70;;;2.28;;
65753;SDS011;52488;47.502;18.940;2023-03-23T04:25:38;3.90;;;2.40;;
65753;SDS011;52488;47.502;18.940;2023-03-23T04:26:42;3.45;;;2.70;;
65753;SDS011;52488;47.502;18.940;2023-03-23T04:27:46;4.45;;;2.75;;
65753;SDS011;52488;47.502;18.940;2023-03-23T04:28:55;5.00;;;2.60;;
65753;SDS011;52488;47.502;18.940;2023-03-23T04:29:58;3.78;;;2.80;;
65753;SDS011;52488;47.502;18.940;2023-03-23T04:31:00;5.45;;;2.70;;
65753;SDS011;52488;47.502;18.940;2023-03-23T04:32:03;4.30;;;2.45;;
65753;SDS011;52488;47.502;18.940;2023-03-23T04:33:04;3.08;;;2.47;;
65753;SDS011;52488;47.502;18.940;2023-03-23T04:34:06;4.75;;;3.00;;
65753;SDS011;52488;47.502;18.940;2023-03-23T04:35:11;3.53;;;2.65;;
65753;SDS011;52488;47.502;18.940;2023-03-23T04:36:15;3.75;;;2.30;;
65753;SDS011;52488;47.502;18.940;2023-03-23T04:37:17;3.10;;;2.35;;
65753;SDS011;52488;47.502;18.940;2023-03-23T04:38:19;5.07;;;2.75;;
65753;SDS011;52488;47.502;18.940;2023-03-23T04:39:22;3.72;;;2.55;;
65753;SDS011;52488;47.502;18.940;2023-03-23T04:40:25;3.22;;;2.58;;
65753;SDS011;52488;47.502;18.940;2023-03-23T04:41:27;3.45;;;2.37;;
65753;SDS011;52488;47.502;18.940;2023-03-23T04:42:30;6.10;;;2.60;;
65753;SDS011;52488;47.502;18.940;2023-03-23T04:43:32;4.03;;;2.53;;
65753;SDS011;52488;47.502;18.940;2023-03-23T04:44:42;3.67;;;2.53;;
65753;SDS011;52488;47.502;18.940;2023-03-23T04:45:44;4.18;;;2.65;;
65753;SDS011;52488;47.502;18.940;2023-03-23T04:46:47;4.32;;;2.75;;
65753;SDS011;52488;47.502;18.940;2023-03-23T04:47:51;6.03;;;2.90;;
65753;SDS011;52488;47.502;18.940;2023-03-23T04:48:58;3.83;;;2.53;;
65753;SDS011;52488;47.502;18.940;2023-03-23T04:50:00;5.22;;;3.35;;
65753;SDS011;52488;47.502;18.940;2023-03-23T04:51:02;3.58;;;2.72;;
65753;SDS011;52488;47.502;18.940;2023-03-23T04:52:05;3.83;;;2.67;;
65753;SDS011;52488;47.502;18.940;2023-03-23T04:53:07;3.67;;;2.50;;
65753;SDS011;52488;47.502;18.940;2023-03-23T04:54:09;4.37;;;2.50;;
65753;SDS011;52488;47.502;18.940;2023-03-23T04:55:11;3.40;;;2.55;;
65753;SDS011;52488;47.502;18.940;2023-03-23T04:56:13;4.30;;;2.67;;
65753;SDS011;52488;47.502;18.940;2023-03-23T04:57:16;3.70;;;2.60;;
65753;SDS011;52488;47.502;18.940;2023-03-23T04:58:17;4.37;;;2.40;;
65753;SDS011;52488;47.502;18.940;2023-03-23T04:59:20;4.30;;;2.30;;
65753;SDS011;52488;47.502;18.940;2023-03-23T05:00:29;2.90;;;2.45;;
65753;SDS011;52488;47.502;18.940;2023-03-23T05:01:31;3.28;;;2.55;;
65753;SDS011;52488;47.502;18.940;2023-03-23T05:02:33;3.28;;;2.53;;
65753;SDS011;52488;47.502;18.940;2023-03-23T05:03:35;4.93;;;2.42;;
65753;SDS011;52488;47.502;18.940;2023-03-23T05:04:36;4.53;;;2.90;;
65753;SDS011;52488;47.502;18.940;2023-03-23T05:05:38;3.83;;;2.85;;
65753;SDS011;52488;47.502;18.940;2023-03-23T05:06:41;4.18;;;2.75;;
65753;SDS011;52488;47.502;18.940;2023-03-23T05:07:45;3.30;;;2.50;;
65753;SDS011;52488;47.502;18.940;2023-03-23T05:08:54;3.83;;;2.87;;
65753;SDS011;52488;47.502;18.940;2023-03-23T05:09:56;4.55;;;2.70;;
65753;SDS011;52488;47.502;18.940;2023-03-23T05:10:59;5.37;;;2.72;;
65753;SDS011;52488;47.502;18.940;2023-03-23T05:12:05;3.40;;;2.78;;
65753;SDS011;52488;47.502;18.940;2023-03-23T05:13:08;3.67;;;2.55;;
65753;SDS011;52488;47.502;18.940;2023-03-23T05:14:09;3.92;;;2.90;;
65753;SDS011;52488;47.502;18.940;2023-03-23T05:15:12;5.50;;;2.90;;
65753;SDS011;52488;47.502;18.940;2023-03-23T05:16:15;4.43;;;2.97;;
65753;SDS011;52488;47.502;18.940;2023-03-23T05:17:17;4.22;;;2.53;;
65753;SDS011;52488;47.502;18.940;2023-03-23T05:18:19;4.80;;;3.05;;
65753;SDS011;52488;47.502;18.940;2023-03-23T05:19:21;3.20;;;2.55;;
65753;SDS011;52488;47.502;18.940;2023-03-23T05:20:23;4.32;;;3.00;;
65753;SDS011;52488;47.502;18.940;2023-03-23T05:21:26;4.55;;;2.78;;
65753;SDS011;52488;47.502;18.940;2023-03-23T05:22:27;4.03;;;2.75;;
65753;SDS011;52488;47.502;18.940;2023-03-23T05:23:33;3.95;;;2.65;;
65753;SDS011;52488;47.502;18.940;2023-03-23T05:24:34;4.20;;;2.55;;
65753;SDS011;52488;47.502;18.940;2023-03-23T05:25:36;5.32;;;2.87;;
65753;SDS011;52488;47.502;18.940;2023-03-23T05:26:41;3.58;;;2.67;;
65753;SDS011;52488;47.502;18.940;2023-03-23T05:27:43;6.22;;;2.62;;
65753;SDS011;52488;47.502;18.940;2023-03-23T05:28:49;4.18;;;2.80;;
65753;SDS011;52488;47.502;18.940;2023-03-23T05:29:54;3.00;;;2.58;;
65753;SDS011;52488;47.502;18.940;2023-03-23T05:30:56;4.90;;;2.75;;
65753;SDS011;52488;47.502;18.940;2023-03-23T05:31:58;3.60;;;2.60;;
65753;SDS011;52488;47.502;18.940;2023-03-23T05:33:00;4.62;;;2.95;;
65753;SDS011;52488;47.502;18.940;2023-03-23T05:34:02;4.30;;;3.08;;
65753;SDS011;52488;47.502;18.940;2023-03-23T05:35:04;2.70;;;2.20;;
65753;SDS011;52488;47.502;18.940;2023-03-23T05:36:06;2.58;;;2.37;;
65753;SDS011;52488;47.502;18.940;2023-03-23T05:37:11;3.70;;;2.58;;
65753;SDS011;52488;47.502;18.940;2023-03-23T05:38:15;5.37;;;2.90;;
65753;SDS011;52488;47.502;18.940;2023-03-23T05:39:17;5.40;;;2.87;;
65753;SDS011;52488;47.502;18.940;2023-03-23T05:40:19;6.10;;;2.90;;
65753;SDS011;52488;47.502;18.940;2023-03-23T05:41:21;3.20;;;2.70;;
65753;SDS011;52488;47.502;18.940;2023-03-23T05:42:24;4.18;;;3.10;;
65753;SDS011;52488;47.502;18.940;2023-03-23T05:43:26;4.72;;;2.87;;
65753;SDS011;52488;47.502;18.940;2023-03-23T05:44:28;3.75;;;2.85;;
65753;SDS011;52488;47.502;18.940;2023-03-23T05:45:30;4.20;;;2.80;;
65753;SDS011;52488;47.502;18.940;2023-03-23T05:46:32;3.83;;;2.78;;
65753;SDS011;52488;47.502;18.940;2023-03-23T05:47:34;5.37;;;3.17;;
65753;SDS011;52488;47.502;18.940;2023-03-23T05:48:36;4.05;;;2.80;;
65753;SDS011;52488;47.502;18.940;2023-03-23T05:49:39;4.03;;;2.60;;
65753;SDS011;52488;47.502;18.940;2023-03-23T05:50:41;5.55;;;3.20;;
65753;SDS011;52488;47.502;18.940;2023-03-23T05:51:43;3.50;;;2.60;;
65753;SDS011;52488;47.502;18.940;2023-03-23T05:52:46;4.53;;;3.03;;
65753;SDS011;52488;47.502;18.940;2023-03-23T05:53:48;5.10;;;3.50;;
65753;SDS011;52488;47.502;18.940;2023-03-23T05:54:50;3.50;;;2.60;;
65753;SDS011;52488;47.502;18.940;2023-03-23T05:55:52;5.28;;;2.95;;
65753;SDS011;52488;47.502;18.940;2023-03-23T05:56:54;4.12;;;3.22;;
65753;SDS011;52488;47.502;18.940;2023-03-23T05:57:56;5.55;;;2.90;;
65753;SDS011;52488;47.502;18.940;2023-03-23T05:58:58;3.92;;;3.15;;
65753;SDS011;52488;47.502;18.940;2023-03-23T06:00:00;3.83;;;2.95;;
65753;SDS011;52488;47.502;18.940;2023-03-23T06:01:07;3.45;;;2.80;;
65753;SDS011;52488;47.502;18.940;2023-03-23T06:02:10;5.62;;;3.20;;
65753;SDS011;52488;47.502;18.940;2023-03-23T06:03:12;6.35;;;3.37;;
65753;SDS011;52488;47.502;18.940;2023-03-23T06:04:13;5.95;;;3.40;;
65753;SDS011;52488;47.502;18.940;2023-03-23T06:05:16;6.03;;;3.15;;
65753;SDS011;52488;47.502;18.940;2023-03-23T06:06:18;5.37;;;3.03;;
65753;SDS011;52488;47.502;18.940;2023-03-23T06:07:20;5.50;;;3.25;;
65753;SDS011;52488;47.502;18.940;2023-03-23T06:08:22;5.65;;;3.22;;
65753;SDS011;52488;47.502;18.940;2023-03-23T06:09:25;9.40;;;3.70;;
65753;SDS011;52488;47.502;18.940;2023-03-23T06:10:27;3.45;;;2.90;;
65753;SDS011;52488;47.502;18.940;2023-03-23T06:11:29;5.18;;;3.45;;
65753;SDS011;52488;47.502;18.940;2023-03-23T06:12:32;4.28;;;3.15;;
65753;SDS011;52488;47.502;18.940;2023-03-23T06:13:34;4.47;;;3.17;;
65753;SDS011;52488;47.502;18.940;2023-03-23T06:14:36;4.25;;;3.67;;
65753;SDS011;52488;47.502;18.940;2023-03-23T06:15:38;6.82;;;3.55;;
65753;SDS011;52488;47.502;18.940;2023-03-23T06:16:40;7.10;;;3.70;;
65753;SDS011;52488;47.502;18.940;2023-03-23T06:17:42;8.55;;;3.62;;
65753;SDS011;52488;47.502;18.940;2023-03-23T06:18:44;7.47;;;4.05;;
65753;SDS011;52488;47.502;18.940;2023-03-23T06:19:48;7.97;;;4.03;;
65753;SDS011;52488;47.502;18.940;2023-03-23T06:20:52;5.87;;;4.10;;
65753;SDS011;52488;47.502;18.940;2023-03-23T06:21:54;7.12;;;3.90;;
65753;SDS011;52488;47.502;18.940;2023-03-23T06:22:56;5.90;;;3.90;;
65753;SDS011;52488;47.502;18.940;2023-03-23T06:23:58;5.97;;;3.62;;
65753;SDS011;52488;47.502;18.940;2023-03-23T06:25:05;9.43;;;3.90;;
65753;SDS011;52488;47.502;18.940;2023-03-23T06:26:07;5.12;;;3.33;;
65753;SDS011;52488;47.502;18.940;2023-03-23T06:27:09;7.43;;;3.75;;
65753;SDS011;52488;47.502;18.940;2023-03-23T06:28:11;5.93;;;3.83;;
65753;SDS011;52488;47.502;18.940;2023-03-23T06:29:13;6.28;;;3.60;;
65753;SDS011;52488;47.502;18.940;2023-03-23T06:30:15;5.78;;;3.87;;
65753;SDS011;52488;47.502;18.940;2023-03-23T06:31:17;4.68;;;3.45;;
65753;SDS011;52488;47.502;18.940;2023-03-23T06:32:21;4.72;;;3.35;;
65753;SDS011;52488;47.502;18.940;2023-03-23T06:33:25;5.43;;;3.58;;
65753;SDS011;52488;47.502;18.940;2023-03-23T06:34:26;7.25;;;3.75;;
65753;SDS011;52488;47.502;18.940;2023-03-23T06:35:28;4.18;;;3.37;;
65753;SDS011;52488;47.502;18.940;2023-03-23T06:36:31;6.43;;;3.42;;
65753;SDS011;52488;47.502;18.940;2023-03-23T06:37:33;6.93;;;3.80;;
65753;SDS011;52488;47.502;18.940;2023-03-23T06:38:35;5.12;;;3.42;;
65753;SDS011;52488;47.502;18.940;2023-03-23T06:39:37;5.75;;;3.60;;